Zaratamo, Spain
Current Conditions -  °F | °C
As of 12:30 PM on Friday 24 Oct 2014 (Local Time) from LEBB Reporting Station
Clear Clear  
Wind Chill: 73°   Ceiling: Unl
Heat Index: 73°   Visibility: 6mi
Dew Point: 45°   Wind: 1mph
Humidity: 36%   Direction: NA
Pressure: 30.09"   Gusts: NA
Location:  43.22°N, 2.87°W
Report Text: LEBB 241030Z VRB01KT CAVOK 23/07 Q1019 NOSIG
Loading
Personal Weather Stations






























Interactive Weather Map
Tropical Storm Tracking
New forecast layout! Learn more

10-Day Weather Forecast

Advertisements
Track Severe Weather on mobile